createdAt,value
2022-09-15T00:01:20.994Z,25.49
2022-09-15T00:06:23.019Z,25.44
2022-09-15T00:11:28.370Z,25.45
2022-09-15T00:16:32.459Z,25.45
2022-09-15T00:21:37.630Z,25.40
2022-09-15T00:26:39.580Z,25.50
2022-09-15T00:31:41.411Z,25.40
2022-09-15T00:36:43.213Z,25.53
2022-09-15T00:41:45.149Z,25.44
2022-09-15T00:47:09.329Z,25.45
2022-09-15T00:52:24.254Z,25.41
2022-09-15T00:57:31.865Z,25.39
2022-09-15T01:02:36.011Z,25.40
2022-09-15T01:07:40.016Z,25.41
2022-09-15T01:12:42.431Z,25.46
2022-09-15T01:17:51.066Z,25.42
2022-09-15T01:23:14.293Z,25.42
2022-09-15T01:28:18.863Z,25.43
2022-09-15T01:33:37.814Z,25.49
2022-09-15T01:38:46.084Z,25.44
2022-09-15T01:44:05.709Z,25.45
2022-09-15T01:49:11.523Z,25.43
2022-09-15T01:54:15.814Z,25.42
2022-09-15T01:59:17.728Z,25.43
2022-09-15T02:04:31.516Z,25.39
2022-09-15T02:09:43.062Z,25.45
2022-09-15T02:14:58.082Z,25.42
2022-09-15T02:20:10.341Z,25.46
2022-09-15T02:25:20.892Z,25.43
2022-09-15T02:30:23.110Z,25.44
2022-09-15T02:35:27.049Z,25.43
2022-09-15T02:40:30.630Z,25.50
2022-09-15T02:45:32.687Z,25.43
2022-09-15T02:50:34.448Z,25.40
2022-09-15T02:55:36.435Z,25.48
2022-09-15T03:00:39.368Z,25.42
2022-09-15T03:05:41.129Z,25.45
2022-09-15T03:10:42.927Z,25.38
2022-09-15T03:15:45.039Z,25.43
2022-09-15T03:20:46.819Z,25.43
2022-09-15T03:25:48.579Z,25.45
2022-09-15T03:30:50.518Z,25.42
2022-09-15T03:35:53.141Z,25.50
2022-09-15T03:41:02.353Z,25.47
2022-09-15T03:46:06.308Z,25.49
2022-09-15T03:51:11.027Z,25.35
2022-09-15T03:56:33.248Z,25.35
2022-09-15T04:01:36.202Z,25.32
2022-09-15T04:06:38.536Z,25.31
2022-09-15T04:11:40.869Z,25.31
2022-09-15T04:16:42.983Z,25.34
2022-09-15T04:21:46.037Z,25.32
2022-09-15T04:26:47.806Z,25.33
2022-09-15T04:31:50.690Z,25.38
2022-09-15T04:36:53.201Z,25.32
2022-09-15T04:41:55.016Z,25.35
2022-09-15T04:46:56.910Z,25.40
2022-09-15T04:51:58.840Z,25.41
2022-09-15T04:57:00.747Z,25.35
2022-09-15T05:02:03.388Z,25.38
2022-09-15T05:07:05.269Z,25.33
2022-09-15T05:12:07.239Z,25.34
2022-09-15T05:17:09.161Z,25.31
2022-09-15T05:22:10.928Z,25.40
2022-09-15T05:27:12.876Z,25.38
2022-09-15T05:32:14.828Z,25.31
2022-09-15T05:37:16.790Z,25.28
2022-09-15T05:42:19.404Z,25.33
2022-09-15T05:47:21.198Z,25.30
2022-09-15T05:52:23.190Z,25.30
2022-09-15T05:57:24.996Z,25.32
2022-09-15T06:02:27.015Z,25.31
2022-09-15T06:07:29.148Z,25.30
2022-09-15T06:12:30.935Z,25.28
2022-09-15T06:17:33.366Z,25.26
2022-09-15T06:22:35.294Z,25.30
2022-09-15T06:27:37.133Z,25.31
2022-09-15T06:32:39.358Z,25.28
2022-09-15T06:37:41.159Z,25.27
2022-09-15T06:42:43.098Z,25.23
2022-09-15T06:47:45.127Z,25.32
2022-09-15T06:52:47.102Z,25.28
2022-09-15T06:57:50.024Z,25.33
2022-09-15T07:02:51.879Z,25.25
2022-09-15T07:07:53.765Z,25.34
2022-09-15T07:12:56.099Z,25.29
2022-09-15T07:17:59.484Z,25.28
2022-09-15T07:23:01.387Z,25.27
2022-09-15T07:28:04.188Z,25.33
2022-09-15T07:33:11.155Z,25.28
2022-09-15T07:38:12.818Z,25.26
2022-09-15T07:43:14.625Z,25.25
2022-09-15T07:48:16.361Z,25.25
2022-09-15T07:53:18.517Z,25.26
2022-09-15T07:58:21.543Z,25.26
2022-09-15T08:03:23.443Z,25.29
2022-09-15T08:08:25.613Z,25.32
2022-09-15T08:13:29.123Z,25.31
2022-09-15T08:18:31.259Z,25.34
2022-09-15T08:23:33.926Z,25.30
2022-09-15T08:28:36.256Z,25.29
2022-09-15T08:33:43.216Z,25.33
2022-09-15T08:38:47.171Z,25.41
2022-09-15T08:44:13.548Z,25.33
2022-09-15T08:49:50.482Z,25.28
2022-09-15T08:54:57.392Z,25.45
2022-09-15T08:59:59.919Z,25.34
2022-09-15T09:05:10.303Z,25.34
2022-09-15T09:10:46.262Z,25.33
2022-09-15T09:15:57.295Z,25.32
2022-09-15T09:21:09.109Z,25.40
2022-09-15T09:26:13.172Z,25.37
2022-09-15T09:31:20.329Z,25.32
2022-09-15T09:36:22.169Z,25.39
2022-09-15T09:41:28.848Z,25.40
2022-09-15T09:46:32.005Z,25.46
2022-09-15T09:51:51.982Z,25.43
2022-09-15T09:56:55.723Z,25.43
2022-09-15T10:02:27.632Z,25.41
2022-09-15T10:07:33.671Z,25.41
2022-09-15T10:12:41.545Z,25.43
2022-09-15T10:17:45.908Z,25.47
2022-09-15T10:22:48.155Z,25.50
2022-09-15T10:28:14.700Z,25.51
2022-09-15T10:33:28.888Z,25.48
2022-09-15T10:38:37.930Z,25.50
2022-09-15T10:44:04.345Z,25.52
2022-09-15T10:49:27.727Z,25.54
2022-09-15T10:54:32.357Z,25.56
2022-09-15T10:59:48.238Z,25.49
2022-09-15T11:05:09.654Z,25.48
2022-09-15T11:10:16.788Z,25.43
2022-09-15T11:15:40.833Z,25.45
2022-09-15T11:20:48.201Z,25.38
2022-09-15T11:25:57.080Z,25.40
2022-09-15T11:31:04.175Z,25.41
2022-09-15T11:36:21.559Z,25.37
2022-09-15T11:41:36.640Z,25.41
2022-09-15T11:46:50.814Z,25.39
2022-09-15T11:52:31.284Z,25.41
2022-09-15T11:57:43.699Z,25.37
2022-09-15T12:03:24.280Z,25.40
2022-09-15T12:08:53.757Z,25.42
2022-09-15T12:13:56.209Z,25.40
2022-09-15T12:19:22.562Z,25.37
2022-09-15T12:25:05.879Z,25.32
2022-09-15T12:30:40.960Z,25.40
2022-09-15T12:35:43.413Z,25.42
2022-09-15T12:40:45.333Z,25.36
2022-09-15T12:45:57.392Z,25.35
2022-09-15T12:51:04.341Z,25.34
2022-09-15T12:56:11.873Z,25.39
2022-09-15T13:01:22.957Z,25.40
2022-09-15T13:06:35.377Z,25.43
2022-09-15T13:11:39.727Z,25.38
2022-09-15T13:16:41.701Z,25.38
2022-09-15T13:21:57.141Z,25.41
2022-09-15T13:26:59.602Z,25.42
2022-09-15T13:32:21.714Z,25.33
2022-09-15T13:38:20.257Z,25.34
2022-09-15T13:43:41.321Z,25.32
2022-09-15T13:48:54.976Z,25.34
2022-09-15T13:54:16.282Z,25.33
2022-09-15T13:59:38.307Z,25.27
2022-09-15T14:04:40.288Z,25.33
2022-09-15T14:09:47.620Z,25.31
2022-09-15T14:14:55.833Z,25.23
2022-09-15T14:20:01.943Z,25.24
2022-09-15T14:25:14.614Z,25.26
2022-09-15T14:30:26.269Z,25.22
2022-09-15T14:35:39.670Z,25.32
2022-09-15T14:40:41.511Z,25.31
2022-09-15T14:45:54.565Z,25.25
2022-09-15T14:51:07.477Z,25.31
2022-09-15T14:56:14.957Z,25.27
2022-09-15T15:01:19.315Z,25.23
2022-09-15T15:06:38.815Z,25.20
2022-09-15T15:11:42.232Z,25.21
2022-09-15T15:16:58.251Z,25.18
2022-09-15T15:22:12.359Z,25.18
2022-09-15T15:27:54.281Z,25.13
2022-09-15T15:32:58.405Z,25.11
2022-09-15T15:38:03.213Z,25.12
2022-09-15T15:43:26.597Z,25.12
2022-09-15T15:48:38.322Z,25.08
2022-09-15T15:53:41.279Z,25.02
2022-09-15T15:58:43.117Z,25.13
2022-09-15T16:03:45.500Z,25.03
2022-09-15T16:08:47.243Z,25.02
2022-09-15T16:13:49.010Z,25.07
2022-09-15T16:18:51.207Z,25.01
2022-09-15T16:23:53.425Z,24.84
2022-09-15T16:28:55.272Z,25.00
2022-09-15T16:33:57.087Z,24.88
2022-09-15T16:38:58.947Z,24.89
2022-09-15T16:44:02.739Z,24.89
2022-09-15T16:49:04.738Z,24.91
2022-09-15T16:54:15.837Z,24.86
2022-09-15T16:59:18.152Z,24.93
2022-09-15T17:04:20.380Z,24.92
2022-09-15T17:09:22.193Z,24.86
2022-09-15T17:14:24.269Z,24.88
2022-09-15T17:19:26.494Z,24.93
2022-09-15T17:24:28.608Z,24.90
2022-09-15T17:29:30.701Z,24.97
2022-09-15T17:34:32.644Z,24.83
2022-09-15T17:39:35.662Z,24.75
2022-09-15T17:44:37.826Z,24.70
2022-09-15T17:49:39.854Z,24.68
2022-09-15T17:54:41.794Z,24.67
2022-09-15T17:59:43.887Z,24.64
2022-09-15T18:04:46.922Z,24.58
2022-09-15T18:09:48.683Z,24.61
2022-09-15T18:14:50.341Z,24.52
2022-09-15T18:19:52.586Z,24.57
2022-09-15T18:24:54.331Z,24.61
2022-09-15T18:29:56.313Z,24.56
2022-09-15T18:34:58.383Z,24.56
2022-09-15T18:40:00.445Z,24.51
2022-09-15T18:45:02.984Z,24.46
2022-09-15T18:50:06.825Z,24.42
2022-09-15T18:55:11.961Z,24.46
2022-09-15T19:00:17.228Z,24.41
2022-09-15T19:05:19.321Z,24.45
2022-09-15T19:10:21.969Z,24.42
2022-09-15T19:15:24.100Z,24.40
2022-09-15T19:20:25.899Z,24.41
2022-09-15T19:25:27.915Z,24.41
2022-09-15T19:30:30.153Z,24.40
2022-09-15T19:35:31.995Z,24.44
2022-09-15T19:40:33.920Z,24.40
2022-09-15T19:45:35.765Z,24.33
2022-09-15T19:50:39.317Z,24.33
2022-09-15T19:55:41.848Z,24.32
2022-09-15T20:00:43.798Z,24.37
2022-09-15T20:05:53.861Z,24.35
2022-09-15T20:10:55.702Z,24.38
2022-09-15T20:16:00.220Z,24.34
2022-09-15T20:21:08.461Z,24.34
2022-09-15T20:26:13.293Z,24.29
2022-09-15T20:31:26.509Z,24.30
2022-09-15T20:36:34.226Z,24.29
2022-09-15T20:41:36.150Z,24.29
2022-09-15T20:46:37.941Z,24.28
2022-09-15T20:51:39.693Z,24.35
2022-09-15T20:56:41.365Z,24.33
2022-09-15T21:01:43.785Z,24.27
2022-09-15T21:06:45.698Z,24.31
2022-09-15T21:11:52.713Z,24.28
2022-09-15T21:16:55.159Z,24.28
2022-09-15T21:21:58.739Z,24.29
2022-09-15T21:27:18.938Z,24.46
2022-09-15T21:32:21.371Z,24.50
2022-09-15T21:37:26.681Z,24.52
2022-09-15T21:42:28.896Z,24.64
2022-09-15T21:47:31.613Z,24.70
2022-09-15T21:52:33.654Z,24.59
2022-09-15T21:57:35.668Z,24.71
2022-09-15T22:02:37.373Z,24.64
2022-09-15T22:07:39.716Z,24.70
2022-09-15T22:12:41.450Z,24.62
2022-09-15T22:17:43.314Z,24.67
2022-09-15T22:22:46.152Z,24.75
2022-09-15T22:27:48.112Z,24.67
2022-09-15T22:32:50.063Z,24.69
2022-09-15T22:37:51.950Z,24.69
2022-09-15T22:42:53.871Z,24.70
2022-09-15T22:47:56.119Z,24.75
2022-09-15T22:52:57.895Z,24.72
2022-09-15T22:57:59.691Z,24.81
2022-09-15T23:03:01.760Z,24.75
2022-09-15T23:08:04.004Z,24.73
2022-09-15T23:13:05.906Z,24.77
2022-09-15T23:18:07.819Z,24.77
2022-09-15T23:23:09.654Z,24.78
2022-09-15T23:28:11.532Z,24.78
2022-09-15T23:33:13.363Z,24.78
2022-09-15T23:38:15.662Z,24.79
2022-09-15T23:43:18.156Z,24.83
2022-09-15T23:48:20.949Z,24.79
2022-09-15T23:53:24.350Z,24.81
2022-09-15T23:58:26.549Z,24.81
